Bluffs, Illinois
Current Conditions -  °F | °C
As of 2:35 AM on Saturday 20 Dec 2014 (Local Time) from KPPQ Reporting Station
Overcast Overcast  
Wind Chill: -2°   Ceiling: 6000
Heat Index:   Visibility: 7mi
Dew Point: -2°   Wind: 5mph
Humidity: 87%   Direction: 120°ESE
Pressure: 30.26"   Gusts: NA
Location:  39.75°N, 90.54°W
Report Text: KPPQ 200835Z AUTO 12004KT 7SM SCT050 OVC060 00/M02 A3026 RMK AO2 T00011018
Loading
Personal Weather Stations






























Interactive Weather Map New forecast layout! Learn more

10-Day Weather Forecast

Advertisements
Track Severe Weather on mobile